Amber, New York
Current Conditions -  °F | °C
As of 9:54 PM on Tuesday 25 Nov 2014 (Local Time) from KSYR Reporting Station
Overcast Overcast  
Wind Chill: 29°   Ceiling: 2300
Heat Index: 38°   Visibility: 10mi
Dew Point: 29°   Wind: 15mph
Humidity: 70%   Direction: 290°WNW
Pressure: 30.18"   Gusts: 24mph
Location:  42.889°N, 76.2819°W
Report Text: KSYR 260254Z 29013G21KT 10SM OVC023 03/M02 A3018 RMK AO2 SLP218 T00331017 51040
Loading
Personal Weather Stations






























Interactive Weather Map New forecast layout! Learn more

10-Day Weather Forecast

Advertisements
Track Severe Weather on mobile